createdAt,value
2023-02-22T00:01:07.635Z,6.28
2023-02-22T00:03:39.198Z,4.85
2023-02-22T00:06:07.017Z,5.10
2023-02-22T00:08:40.688Z,4.55
2023-02-22T00:11:10.763Z,5.78
2023-02-22T00:13:38.563Z,5.75
2023-02-22T00:16:06.741Z,4.45
2023-02-22T00:18:35.669Z,4.35
2023-02-22T00:21:02.344Z,6.13
2023-02-22T00:23:35.300Z,4.93
2023-02-22T00:26:04.451Z,4.85
2023-02-22T00:28:31.335Z,5.32
2023-02-22T00:30:59.914Z,4.97
2023-02-22T00:33:26.633Z,7.03
2023-02-22T00:36:00.290Z,4.90
2023-02-22T00:38:27.146Z,6.63
2023-02-22T00:40:56.029Z,5.20
2023-02-22T00:43:22.806Z,6.20
2023-02-22T00:45:49.499Z,4.80
2023-02-22T00:48:19.053Z,6.05
2023-02-22T00:50:48.608Z,5.22
2023-02-22T00:53:17.758Z,7.13
2023-02-22T00:58:11.020Z,5.60
2023-02-22T01:00:43.369Z,4.80
2023-02-22T01:03:19.302Z,5.35
2023-02-22T01:05:50.836Z,5.25
2023-02-22T01:08:20.210Z,6.03
2023-02-22T01:10:46.893Z,7.63
2023-02-22T01:13:16.450Z,5.28
2023-02-22T01:15:46.163Z,6.13
2023-02-22T01:18:13.180Z,4.55
2023-02-22T01:20:42.554Z,6.57
2023-02-22T01:23:10.721Z,5.30
2023-02-22T01:25:39.753Z,5.97
2023-02-22T01:28:09.900Z,6.43
2023-02-22T01:30:37.627Z,5.03
2023-02-22T01:33:07.642Z,6.20
2023-02-22T01:35:46.443Z,7.57
2023-02-22T01:38:14.324Z,7.82
2023-02-22T01:40:43.304Z,5.25
2023-02-22T01:43:24.044Z,5.90
2023-02-22T01:46:05.178Z,5.90
2023-02-22T01:48:35.152Z,5.53
2023-02-22T01:51:11.644Z,6.90
2023-02-22T01:53:46.688Z,9.13
2023-02-22T01:56:14.831Z,5.75
2023-02-22T01:58:46.482Z,5.63
2023-02-22T02:01:17.426Z,7.07
2023-02-22T02:03:49.715Z,9.93
2023-02-22T02:06:20.112Z,6.82
2023-02-22T02:09:21.513Z,8.35
2023-02-22T02:11:49.739Z,5.90
2023-02-22T02:14:19.324Z,6.43
2023-02-22T02:16:51.126Z,6.30
2023-02-22T02:19:29.002Z,6.53
2023-02-22T02:22:25.455Z,5.82
2023-02-22T02:25:11.098Z,6.05
2023-02-22T02:27:37.646Z,4.75
2023-02-22T02:30:28.726Z,5.95
2023-02-22T02:33:21.497Z,5.43
2023-02-22T02:35:48.074Z,7.03
2023-02-22T02:38:39.594Z,6.32
2023-02-22T02:41:29.506Z,6.05
2023-02-22T02:44:05.014Z,9.63
2023-02-22T02:46:43.658Z,6.68
2023-02-22T02:49:25.361Z,6.35
2023-02-22T02:51:55.158Z,5.43
2023-02-22T02:54:23.576Z,6.55
2023-02-22T02:56:51.710Z,5.40
2023-02-22T02:59:30.859Z,8.35
2023-02-22T03:02:24.742Z,6.38
2023-02-22T03:05:11.399Z,6.85
2023-02-22T03:07:56.341Z,5.82
2023-02-22T03:10:58.380Z,6.53
2023-02-22T03:13:40.616Z,5.30
2023-02-22T03:16:13.171Z,8.50
2023-02-22T03:18:54.973Z,8.45
2023-02-22T03:21:34.622Z,5.90
2023-02-22T03:24:25.572Z,6.22
2023-02-22T03:27:03.685Z,5.93
2023-02-22T03:29:35.651Z,7.18
2023-02-22T03:32:07.286Z,5.13
2023-02-22T03:34:43.847Z,5.80
2023-02-22T03:37:22.250Z,5.93
2023-02-22T03:39:54.177Z,6.25
2023-02-22T03:42:37.731Z,5.35
2023-02-22T03:45:10.293Z,6.13
2023-02-22T03:47:47.267Z,5.38
2023-02-22T03:50:20.838Z,4.93
2023-02-22T03:52:49.931Z,6.97
2023-02-22T03:57:51.980Z,6.20
2023-02-22T04:00:23.006Z,5.50
2023-02-22T04:02:49.687Z,6.43
2023-02-22T04:05:17.249Z,6.70
2023-02-22T04:07:44.027Z,7.43
2023-02-22T04:10:12.113Z,6.75
2023-02-22T04:12:42.277Z,5.80
2023-02-22T04:15:12.160Z,5.60
2023-02-22T04:17:38.924Z,6.43
2023-02-22T04:20:08.442Z,6.30
2023-02-22T04:22:35.061Z,6.88
2023-02-22T04:25:04.424Z,7.15
2023-02-22T04:27:34.494Z,9.23
2023-02-22T04:30:01.218Z,7.03
2023-02-22T04:32:27.821Z,6.63
2023-02-22T04:34:59.500Z,7.72
2023-02-22T04:37:28.508Z,6.25
2023-02-22T04:39:55.115Z,6.97
2023-02-22T04:42:21.763Z,7.25
2023-02-22T04:44:49.551Z,7.85
2023-02-22T04:47:20.866Z,5.35
2023-02-22T04:49:47.920Z,8.43
2023-02-22T04:52:19.325Z,6.47
2023-02-22T04:54:47.082Z,5.57
2023-02-22T04:57:14.153Z,7.85
2023-02-22T04:59:45.689Z,8.70
2023-02-22T05:02:15.283Z,6.80
2023-02-22T05:04:41.978Z,7.40
2023-02-22T05:07:11.462Z,6.50
2023-02-22T05:09:38.302Z,6.65
2023-02-22T05:12:07.777Z,6.80
2023-02-22T05:14:34.401Z,7.10
2023-02-22T05:17:04.198Z,6.40
2023-02-22T05:19:31.046Z,8.73
2023-02-22T05:21:57.973Z,7.97
2023-02-22T05:24:24.816Z,7.43
2023-02-22T05:26:51.457Z,6.20
2023-02-22T05:29:18.467Z,7.60
2023-02-22T05:31:47.725Z,9.55
2023-02-22T05:34:17.534Z,6.57
2023-02-22T05:36:44.527Z,6.70
2023-02-22T05:39:13.662Z,7.05
2023-02-22T05:44:07.087Z,6.35
2023-02-22T05:46:33.828Z,6.35
2023-02-22T05:49:00.602Z,6.30
2023-02-22T05:51:27.916Z,6.68
2023-02-22T05:53:57.266Z,12.68
2023-02-22T05:56:30.260Z,9.00
2023-02-22T05:58:59.649Z,8.77
2023-02-22T06:01:27.289Z,6.88
2023-02-22T06:03:54.405Z,6.45
2023-02-22T06:06:22.477Z,8.68
2023-02-22T06:08:49.419Z,6.38
2023-02-22T06:11:16.795Z,5.95
2023-02-22T06:13:49.780Z,7.55
2023-02-22T06:16:22.339Z,8.85
2023-02-22T06:18:49.717Z,7.68
2023-02-22T06:21:19.167Z,7.30
2023-02-22T06:23:47.984Z,9.55
2023-02-22T06:26:18.590Z,8.13
2023-02-22T06:28:49.844Z,7.10
2023-02-22T08:27:46.869Z,7.35
2023-02-22T08:30:23.486Z,6.18
2023-02-22T08:32:50.936Z,6.38
2023-02-22T08:35:21.675Z,8.52
2023-02-22T08:37:58.852Z,8.98
2023-02-22T08:40:28.432Z,7.38
2023-02-22T08:42:55.291Z,4.72
2023-02-22T08:45:22.291Z,4.95
2023-02-22T08:47:49.563Z,5.38
2023-02-22T08:50:23.516Z,8.63
2023-02-22T08:52:55.200Z,6.68
2023-02-22T08:55:24.309Z,4.93
2023-02-22T08:57:54.047Z,7.78
2023-02-22T09:00:24.771Z,5.13
2023-02-22T09:02:54.456Z,6.93
2023-02-22T09:05:23.400Z,6.13
2023-02-22T09:07:50.170Z,5.45
2023-02-22T09:10:24.538Z,7.15
2023-02-22T09:12:57.216Z,5.88
2023-02-22T09:15:29.962Z,6.38
2023-02-22T09:17:57.106Z,7.82
2023-02-22T09:20:24.920Z,7.28
2023-02-22T09:22:52.271Z,5.45
2023-02-22T09:25:22.240Z,8.60
2023-02-22T09:27:53.640Z,17.30
2023-02-22T09:30:26.358Z,14.10
2023-02-22T09:33:00.565Z,14.27
2023-02-22T09:35:29.453Z,14.82
2023-02-22T09:38:06.246Z,12.60
2023-02-22T09:40:45.062Z,14.45
2023-02-22T09:43:26.801Z,14.77
2023-02-22T09:46:30.991Z,12.80
2023-02-22T09:49:14.019Z,13.68
2023-02-22T09:51:49.461Z,15.95
2023-02-22T09:54:28.448Z,13.20
2023-02-22T09:56:58.823Z,16.00
2023-02-22T09:59:31.416Z,17.45
2023-02-22T10:02:26.516Z,14.98
2023-02-22T10:05:05.817Z,20.92
2023-02-22T10:07:34.731Z,13.07
2023-02-22T10:10:06.623Z,16.58
2023-02-22T10:13:14.237Z,14.43
2023-02-22T10:15:51.620Z,19.60
2023-02-22T10:18:55.180Z,16.17
2023-02-22T10:21:36.719Z,16.38
2023-02-22T10:24:14.971Z,12.80
2023-02-22T10:26:47.096Z,16.08
2023-02-22T10:29:36.995Z,16.60
2023-02-22T10:32:05.533Z,16.65
2023-02-22T10:34:39.576Z,14.13
2023-02-22T10:37:29.915Z,14.52
2023-02-22T10:40:13.566Z,16.92
2023-02-22T10:42:40.207Z,15.70
2023-02-22T10:45:20.919Z,14.05
2023-02-22T10:47:48.119Z,19.75
2023-02-22T10:50:15.868Z,14.13
2023-02-22T10:52:42.572Z,13.15
2023-02-22T10:55:15.967Z,13.88
2023-02-22T10:57:47.780Z,15.40
2023-02-22T11:00:20.921Z,20.88
2023-02-22T11:02:57.184Z,21.65
2023-02-22T11:05:50.830Z,14.93
2023-02-22T11:08:28.183Z,23.70
2023-02-22T11:11:01.620Z,17.95
2023-02-22T11:13:37.271Z,15.68
2023-02-22T11:16:20.832Z,13.98
2023-02-22T11:18:49.807Z,14.27
2023-02-22T11:24:03.729Z,16.73
2023-02-22T11:26:41.355Z,14.50
2023-02-22T11:29:18.531Z,12.85
2023-02-22T11:31:49.477Z,13.23
2023-02-22T11:34:52.783Z,15.60
2023-02-22T11:37:22.417Z,13.85
2023-02-22T11:40:05.076Z,16.50
2023-02-22T11:42:33.787Z,14.50
2023-02-22T11:45:11.361Z,15.70
2023-02-22T11:47:59.490Z,12.68
2023-02-22T11:50:43.808Z,16.27
2023-02-22T11:53:27.021Z,14.30
2023-02-22T11:56:14.072Z,12.60
2023-02-22T11:58:49.640Z,15.13
2023-02-22T12:01:40.453Z,12.20
2023-02-22T12:04:40.205Z,12.85
2023-02-22T12:07:19.149Z,15.38
2023-02-22T12:10:01.262Z,16.15
2023-02-22T12:12:49.177Z,13.35
2023-02-22T12:15:46.103Z,14.10
2023-02-22T12:18:50.114Z,13.70
2023-02-22T12:21:22.846Z,14.52
2023-02-22T12:24:00.899Z,12.63
2023-02-22T12:26:39.809Z,14.07
2023-02-22T12:29:29.981Z,15.98
2023-02-22T12:32:05.022Z,16.38
2023-02-22T12:34:38.275Z,17.80
2023-02-22T12:37:58.935Z,17.92
2023-02-22T12:40:50.171Z,12.77
2023-02-22T12:43:24.972Z,15.88
2023-02-22T12:46:04.732Z,14.00
2023-02-22T12:48:42.431Z,17.48
2023-02-22T12:51:34.764Z,16.70
2023-02-22T12:54:21.344Z,14.82
2023-02-22T12:56:53.962Z,16.45
2023-02-22T12:59:29.399Z,15.48
2023-02-22T13:02:06.500Z,14.00
2023-02-22T13:04:35.162Z,12.98
2023-02-22T13:07:26.003Z,14.68
2023-02-22T13:10:14.425Z,15.80
2023-02-22T13:12:52.637Z,17.80
2023-02-22T13:15:30.329Z,18.77
2023-02-22T13:18:05.014Z,20.10
2023-02-22T13:20:41.275Z,15.30
2023-02-22T13:23:45.425Z,14.02
2023-02-22T13:26:30.728Z,15.77
2023-02-22T13:29:46.886Z,15.38
2023-02-22T13:32:38.043Z,12.23
2023-02-22T13:35:35.576Z,15.23
2023-02-22T13:38:20.899Z,14.32
2023-02-22T13:40:56.119Z,14.40
2023-02-22T13:43:43.702Z,14.13
2023-02-22T13:46:13.377Z,13.00
2023-02-22T13:49:30.943Z,13.57
2023-02-22T13:52:02.019Z,14.85
2023-02-22T13:54:39.975Z,13.02
2023-02-22T13:57:20.427Z,12.52
2023-02-22T13:59:47.436Z,16.92
2023-02-22T14:02:55.738Z,13.77
2023-02-22T14:05:46.590Z,16.60
2023-02-22T14:08:21.754Z,11.00
2023-02-22T14:13:22.588Z,14.05
2023-02-22T14:16:00.027Z,15.43
2023-02-22T14:18:33.423Z,13.70
2023-02-22T14:21:16.771Z,15.30
2023-02-22T14:23:45.304Z,14.40
2023-02-22T14:26:14.592Z,14.77
2023-02-22T14:28:59.621Z,15.95
2023-02-22T14:31:37.102Z,16.63
2023-02-22T14:34:06.347Z,14.90
2023-02-22T14:36:39.591Z,14.40
2023-02-22T14:39:22.186Z,13.52
2023-02-22T14:42:27.422Z,15.80
2023-02-22T14:45:17.135Z,28.98
2023-02-22T14:48:11.892Z,21.90
2023-02-22T14:50:44.218Z,17.75
2023-02-22T14:53:13.773Z,13.43
2023-02-22T14:55:45.234Z,14.43
2023-02-22T14:58:20.583Z,13.20
2023-02-22T15:00:53.198Z,18.45
2023-02-22T15:03:37.670Z,15.45
2023-02-22T15:06:18.274Z,7.65
2023-02-22T15:08:49.520Z,7.70
2023-02-22T15:11:31.247Z,7.10
2023-02-22T15:14:00.033Z,11.30
2023-02-22T15:16:34.958Z,8.10
2023-02-22T15:19:08.683Z,10.27
2023-02-22T15:21:45.943Z,9.55
2023-02-22T15:24:23.186Z,7.90
2023-02-22T15:27:01.947Z,7.57
2023-02-22T15:29:49.505Z,4.97
2023-02-22T15:32:34.879Z,5.45
2023-02-22T15:35:23.973Z,4.63
2023-02-22T15:38:04.533Z,4.50
2023-02-22T15:40:33.448Z,4.65
2023-02-22T15:43:05.317Z,5.90
2023-02-22T15:45:32.472Z,5.43
2023-02-22T15:47:59.593Z,19.02
2023-02-22T15:50:29.136Z,12.77
2023-02-22T15:53:03.193Z,12.20
2023-02-22T15:55:50.882Z,13.85
2023-02-22T15:58:24.170Z,20.15
2023-02-22T16:00:59.223Z,17.85
2023-02-22T16:03:38.696Z,14.05
2023-02-22T16:06:13.420Z,12.00
2023-02-22T16:08:54.400Z,14.80
2023-02-22T16:11:29.847Z,14.80
2023-02-22T16:14:06.073Z,18.52
2023-02-22T16:16:41.791Z,17.95
2023-02-22T16:19:17.706Z,15.95
2023-02-22T16:22:52.333Z,12.68
2023-02-22T16:25:18.982Z,14.35
2023-02-22T16:28:01.541Z,13.88
2023-02-22T16:30:40.264Z,13.38
2023-02-22T16:33:13.874Z,20.15
2023-02-22T16:35:52.253Z,21.77
2023-02-22T16:38:19.900Z,15.95
2023-02-22T16:40:55.178Z,14.80
2023-02-22T16:43:24.415Z,14.40
2023-02-22T16:45:53.643Z,12.20
2023-02-22T16:48:23.580Z,13.07
2023-02-22T16:50:54.560Z,12.57
2023-02-22T16:53:24.191Z,10.20
2023-02-22T16:55:58.079Z,13.23
2023-02-22T16:58:29.528Z,11.13
2023-02-22T17:00:57.669Z,10.80
2023-02-22T17:03:26.063Z,11.27
2023-02-22T17:05:57.939Z,14.85
2023-02-22T17:08:27.322Z,20.95
2023-02-22T17:10:56.862Z,13.05
2023-02-22T17:13:29.332Z,15.77
2023-02-22T17:16:01.371Z,14.45
2023-02-22T17:18:30.314Z,13.38
2023-02-22T17:20:57.169Z,12.38
2023-02-22T17:23:24.666Z,11.55
2023-02-22T17:25:57.080Z,12.68
2023-02-22T17:28:27.376Z,13.77
2023-02-22T17:31:01.610Z,14.60
2023-02-22T17:33:37.461Z,10.50
2023-02-22T17:36:05.335Z,11.85
2023-02-22T17:38:36.539Z,13.80
2023-02-22T17:41:03.952Z,13.07
2023-02-22T17:43:30.635Z,14.55
2023-02-22T17:45:57.730Z,12.80
2023-02-22T17:48:24.853Z,14.38
2023-02-22T17:50:54.949Z,13.57
2023-02-22T17:53:27.791Z,14.18
2023-02-22T17:55:54.468Z,17.63
2023-02-22T17:58:31.097Z,13.45
2023-02-22T18:01:00.751Z,14.32
2023-02-22T18:03:34.964Z,17.75
2023-02-22T18:06:03.811Z,15.88
2023-02-22T18:08:32.210Z,15.73
2023-02-22T18:11:05.423Z,17.73
2023-02-22T18:13:34.817Z,18.05
2023-02-22T18:16:04.964Z,14.95
2023-02-22T18:18:34.689Z,11.93
2023-02-22T18:21:04.250Z,16.13
2023-02-22T18:23:32.209Z,18.27
2023-02-22T18:26:23.134Z,16.33
2023-02-22T18:28:54.154Z,17.20
2023-02-22T18:31:22.734Z,18.13
2023-02-22T18:33:53.823Z,14.30
2023-02-22T18:36:23.447Z,14.05
2023-02-22T18:38:52.662Z,14.98
2023-02-22T18:43:59.070Z,11.43
2023-02-22T18:46:30.197Z,16.33
2023-02-22T18:48:57.462Z,29.10
2023-02-22T18:51:25.934Z,18.25
2023-02-22T18:54:00.561Z,13.80
2023-02-22T18:56:31.301Z,18.25
2023-02-22T18:59:03.118Z,16.85
2023-02-22T19:01:31.784Z,14.65
2023-02-22T19:04:00.455Z,16.35
2023-02-22T19:06:29.508Z,16.02
2023-02-22T19:11:30.621Z,16.05
2023-02-22T19:16:28.111Z,14.50
2023-02-22T19:18:57.846Z,15.23
2023-02-22T19:21:32.039Z,16.63
2023-02-22T19:23:59.071Z,18.55
2023-02-22T19:26:30.087Z,16.38
2023-02-22T19:29:04.588Z,15.82
2023-02-22T19:31:37.243Z,15.77
2023-02-22T19:34:11.087Z,16.77
2023-02-22T19:36:40.050Z,14.40
2023-02-22T19:39:07.346Z,10.82
2023-02-22T19:41:33.995Z,10.18
2023-02-22T19:44:05.298Z,13.10
2023-02-22T19:46:34.410Z,11.98
2023-02-22T19:51:34.070Z,16.10
2023-02-22T19:54:05.591Z,15.43
2023-02-22T19:56:35.745Z,12.40
2023-02-22T19:59:13.756Z,13.68
2023-02-22T20:01:44.413Z,14.60
2023-02-22T20:04:18.597Z,10.60
2023-02-22T20:06:46.751Z,15.38
2023-02-22T20:09:19.607Z,14.00
2023-02-22T20:11:51.570Z,12.73
2023-02-22T20:14:24.550Z,10.18
2023-02-22T20:16:52.432Z,12.10
2023-02-22T20:19:19.966Z,13.50
2023-02-22T20:21:49.321Z,12.13
2023-02-22T20:24:24.171Z,11.38
2023-02-22T20:26:56.611Z,12.05
2023-02-22T20:29:29.537Z,15.13
2023-02-22T20:32:00.491Z,10.95
2023-02-22T20:34:31.496Z,18.58
2023-02-22T20:36:58.829Z,18.88
2023-02-22T20:39:25.655Z,11.45
2023-02-22T20:42:00.446Z,11.93
2023-02-22T20:44:33.579Z,14.80
2023-02-22T20:47:00.507Z,15.70
2023-02-22T20:49:27.569Z,15.88
2023-02-22T20:51:56.777Z,17.67
2023-02-22T20:56:52.640Z,14.95
2023-02-22T20:59:23.296Z,14.38
2023-02-22T21:01:50.372Z,13.48
2023-02-22T21:04:17.957Z,17.40
2023-02-22T21:06:46.854Z,16.20
2023-02-22T21:09:20.607Z,14.00
2023-02-22T21:11:48.044Z,11.95
2023-02-22T21:14:21.218Z,20.45
2023-02-22T21:16:50.308Z,15.00
2023-02-22T21:22:01.702Z,22.25
2023-02-22T21:24:33.288Z,18.13
2023-02-22T21:27:00.365Z,14.02
2023-02-22T21:29:28.692Z,16.83
2023-02-22T21:31:58.630Z,17.90
2023-02-22T21:34:27.989Z,16.35
2023-02-22T21:36:59.442Z,15.73
2023-02-22T21:39:28.716Z,17.23
2023-02-22T21:42:01.166Z,15.18
2023-02-22T21:44:28.369Z,17.25
2023-02-22T21:46:54.957Z,19.38
2023-02-22T21:49:25.085Z,17.02
2023-02-22T21:51:54.416Z,14.02
2023-02-22T21:54:23.449Z,14.50
2023-02-22T21:56:50.328Z,15.70
2023-02-22T21:59:23.922Z,18.02
2023-02-22T22:01:56.917Z,16.92
2023-02-22T22:04:29.103Z,15.18
2023-02-22T22:06:58.034Z,11.38
2023-02-22T22:09:37.854Z,14.65
2023-02-22T22:12:05.375Z,12.38
2023-02-22T22:14:34.132Z,18.08
2023-02-22T22:17:01.145Z,18.33
2023-02-22T22:19:34.394Z,16.42
2023-02-22T22:22:03.675Z,13.68
2023-02-22T22:24:35.209Z,14.63
2023-02-22T22:27:06.022Z,15.48
2023-02-22T22:29:35.140Z,15.70
2023-02-22T22:34:34.422Z,16.73
2023-02-22T22:37:01.246Z,16.85
2023-02-22T22:39:33.009Z,17.85
2023-02-22T22:41:59.702Z,13.45
2023-02-22T22:44:32.773Z,14.88
2023-02-22T22:47:00.305Z,16.13
2023-02-22T22:49:31.291Z,14.95
2023-02-22T22:52:02.804Z,14.95
2023-02-22T22:54:31.799Z,17.90
2023-02-22T22:57:00.645Z,16.17
2023-02-22T22:59:27.827Z,14.35
2023-02-22T23:01:56.640Z,14.77
2023-02-22T23:04:26.156Z,21.08
2023-02-22T23:06:56.811Z,15.02
2023-02-22T23:09:24.897Z,19.13
2023-02-22T23:12:08.764Z,17.65
2023-02-22T23:14:44.465Z,14.60
2023-02-22T23:17:33.498Z,18.42
2023-02-22T23:20:00.227Z,21.67
2023-02-22T23:22:31.654Z,18.50
2023-02-22T23:25:00.089Z,15.63
2023-02-22T23:27:28.536Z,19.17
2023-02-22T23:29:59.877Z,19.05
2023-02-22T23:32:29.892Z,17.15
2023-02-22T23:34:56.516Z,14.43
2023-02-22T23:37:25.375Z,16.80
2023-02-22T23:39:52.559Z,19.63
2023-02-22T23:42:23.091Z,13.90
2023-02-22T23:44:53.279Z,13.85
2023-02-22T23:47:24.942Z,15.15
2023-02-22T23:49:51.597Z,15.52
2023-02-22T23:52:24.552Z,17.73
2023-02-22T23:54:53.949Z,20.85
2023-02-22T23:57:20.720Z,17.05
2023-02-22T23:59:51.185Z,14.23
